Terminal Aerodrome Forecast
Issued by NWS

Home | Current Version | Previous Version | Text Only | Print | Product List | Glossary On
Versions: 1 2 3 4 5 6 7 8 9 10 11 12 13 14 15 16 17 18 19 20
000
FTUS46 KEKA 312336
TAFCEC
TAF
KCEC 312336Z 0100/0124 32012G19KT P6SM SKC
     FM010300 33009KT 6SM BR SCT008
     FM010500 26006KT 4SM BR BKN006
     FM010800 19005KT 2SM BR OVC004
      TEMPO 0112/0114 1/2SM FG
     FM011600 35005KT 3SM BR OVC004=

USA.gov is the U.S. government's official web portal to all federal, state and local government web resources and services.